sensor_id;sensor_type;location;lat;lon;timestamp;P1;durP1;ratioP1;P2;durP2;ratioP2
27213;SDS011;14723;55.814;37.460;2022-11-15T00:01:20;2.97;;;0.90;;
27213;SDS011;14723;55.814;37.460;2022-11-15T00:04:44;2.50;;;1.02;;
27213;SDS011;14723;55.814;37.460;2022-11-15T00:08:10;3.38;;;0.90;;
27213;SDS011;14723;55.814;37.460;2022-11-15T00:11:35;3.17;;;0.88;;
27213;SDS011;14723;55.814;37.460;2022-11-15T00:14:59;4.22;;;1.17;;
27213;SDS011;14723;55.814;37.460;2022-11-15T00:18:23;2.50;;;0.90;;
27213;SDS011;14723;55.814;37.460;2022-11-15T00:21:47;2.33;;;0.75;;
27213;SDS011;14723;55.814;37.460;2022-11-15T00:25:13;3.78;;;0.88;;
27213;SDS011;14723;55.814;37.460;2022-11-15T00:28:37;2.60;;;0.70;;
27213;SDS011;14723;55.814;37.460;2022-11-15T00:32:01;2.90;;;0.63;;
27213;SDS011;14723;55.814;37.460;2022-11-15T00:35:24;5.22;;;0.80;;
27213;SDS011;14723;55.814;37.460;2022-11-15T00:38:48;0.93;;;0.82;;
27213;SDS011;14723;55.814;37.460;2022-11-15T00:42:15;2.63;;;1.10;;
27213;SDS011;14723;55.814;37.460;2022-11-15T00:45:39;3.30;;;1.02;;
27213;SDS011;14723;55.814;37.460;2022-11-15T00:49:03;3.75;;;0.90;;
27213;SDS011;14723;55.814;37.460;2022-11-15T00:52:26;6.93;;;1.25;;
27213;SDS011;14723;55.814;37.460;2022-11-15T00:55:51;6.65;;;1.65;;
27213;SDS011;14723;55.814;37.460;2022-11-15T00:59:17;7.30;;;1.25;;
27213;SDS011;14723;55.814;37.460;2022-11-15T01:02:41;7.95;;;1.30;;
27213;SDS011;14723;55.814;37.460;2022-11-15T01:06:05;13.43;;;1.35;;
27213;SDS011;14723;55.814;37.460;2022-11-15T01:09:29;3.65;;;1.00;;
27213;SDS011;14723;55.814;37.460;2022-11-15T01:12:53;2.45;;;0.80;;
27213;SDS011;14723;55.814;37.460;2022-11-15T01:16:20;4.53;;;1.05;;
27213;SDS011;14723;55.814;37.460;2022-11-15T01:19:43;2.55;;;1.35;;
27213;SDS011;14723;55.814;37.460;2022-11-15T01:23:08;3.35;;;1.10;;
27213;SDS011;14723;55.814;37.460;2022-11-15T01:26:31;5.20;;;0.98;;
27213;SDS011;14723;55.814;37.460;2022-11-15T01:29:55;6.40;;;1.17;;
27213;SDS011;14723;55.814;37.460;2022-11-15T01:33:21;3.22;;;0.80;;
27213;SDS011;14723;55.814;37.460;2022-11-15T01:36:45;4.78;;;1.00;;
27213;SDS011;14723;55.814;37.460;2022-11-15T01:40:09;7.82;;;1.00;;
27213;SDS011;14723;55.814;37.460;2022-11-15T01:43:35;6.30;;;1.02;;
27213;SDS011;14723;55.814;37.460;2022-11-15T01:46:59;6.57;;;1.13;;
27213;SDS011;14723;55.814;37.460;2022-11-15T01:50:28;5.00;;;1.00;;
27213;SDS011;14723;55.814;37.460;2022-11-15T01:53:55;5.80;;;1.02;;
27213;SDS011;14723;55.814;37.460;2022-11-15T01:57:20;4.18;;;1.63;;
27213;SDS011;14723;55.814;37.460;2022-11-15T02:00:44;4.45;;;0.93;;
27213;SDS011;14723;55.814;37.460;2022-11-15T02:04:09;7.72;;;1.00;;
27213;SDS011;14723;55.814;37.460;2022-11-15T02:07:36;4.13;;;1.95;;
27213;SDS011;14723;55.814;37.460;2022-11-15T02:11:00;3.03;;;1.40;;
27213;SDS011;14723;55.814;37.460;2022-11-15T02:14:24;9.68;;;1.85;;
27213;SDS011;14723;55.814;37.460;2022-11-15T02:17:54;4.30;;;0.73;;
27213;SDS011;14723;55.814;37.460;2022-11-15T02:21:22;2.90;;;0.50;;
27213;SDS011;14723;55.814;37.460;2022-11-15T02:24:53;5.07;;;0.82;;
27213;SDS011;14723;55.814;37.460;2022-11-15T02:28:25;6.80;;;0.98;;
27213;SDS011;14723;55.814;37.460;2022-11-15T02:31:55;4.82;;;0.90;;
27213;SDS011;14723;55.814;37.460;2022-11-15T02:35:22;2.42;;;0.90;;
27213;SDS011;14723;55.814;37.460;2022-11-15T02:38:50;2.00;;;0.77;;
27213;SDS011;14723;55.814;37.460;2022-11-15T02:42:15;6.43;;;0.88;;
27213;SDS011;14723;55.814;37.460;2022-11-15T02:45:54;5.28;;;0.95;;
27213;SDS011;14723;55.814;37.460;2022-11-15T02:49:23;4.65;;;1.77;;
27213;SDS011;14723;55.814;37.460;2022-11-15T02:52:48;3.63;;;1.25;;
27213;SDS011;14723;55.814;37.460;2022-11-15T02:56:12;5.07;;;0.93;;
27213;SDS011;14723;55.814;37.460;2022-11-15T02:59:45;9.80;;;1.35;;
27213;SDS011;14723;55.814;37.460;2022-11-15T03:03:22;4.93;;;1.20;;
27213;SDS011;14723;55.814;37.460;2022-11-15T03:06:53;3.28;;;1.17;;
27213;SDS011;14723;55.814;37.460;2022-11-15T03:10:21;3.95;;;1.10;;
27213;SDS011;14723;55.814;37.460;2022-11-15T03:13:50;8.30;;;1.23;;
27213;SDS011;14723;55.814;37.460;2022-11-15T03:17:18;5.15;;;1.17;;
27213;SDS011;14723;55.814;37.460;2022-11-15T03:20:42;6.60;;;1.48;;
27213;SDS011;14723;55.814;37.460;2022-11-15T03:24:10;3.90;;;1.13;;
27213;SDS011;14723;55.814;37.460;2022-11-15T03:27:35;5.95;;;1.83;;
27213;SDS011;14723;55.814;37.460;2022-11-15T03:31:00;3.83;;;1.17;;
27213;SDS011;14723;55.814;37.460;2022-11-15T03:34:47;2.75;;;0.88;;
27213;SDS011;14723;55.814;37.460;2022-11-15T03:38:14;5.22;;;1.65;;
27213;SDS011;14723;55.814;37.460;2022-11-15T03:41:43;6.15;;;1.20;;
27213;SDS011;14723;55.814;37.460;2022-11-15T03:45:12;3.10;;;1.10;;
27213;SDS011;14723;55.814;37.460;2022-11-15T03:48:39;8.48;;;1.75;;
27213;SDS011;14723;55.814;37.460;2022-11-15T03:52:05;5.00;;;1.35;;
27213;SDS011;14723;55.814;37.460;2022-11-15T03:55:31;4.07;;;1.17;;
27213;SDS011;14723;55.814;37.460;2022-11-15T03:58:57;2.95;;;1.00;;
27213;SDS011;14723;55.814;37.460;2022-11-15T04:02:21;7.28;;;1.30;;
27213;SDS011;14723;55.814;37.460;2022-11-15T04:05:46;6.93;;;1.40;;
27213;SDS011;14723;55.814;37.460;2022-11-15T04:09:09;3.75;;;1.23;;
27213;SDS011;14723;55.814;37.460;2022-11-15T04:12:34;5.78;;;1.40;;
27213;SDS011;14723;55.814;37.460;2022-11-15T04:16:00;7.55;;;1.70;;
27213;SDS011;14723;55.814;37.460;2022-11-15T04:19:24;8.45;;;1.55;;
27213;SDS011;14723;55.814;37.460;2022-11-15T04:23:01;6.25;;;1.58;;
27213;SDS011;14723;55.814;37.460;2022-11-15T04:26:37;4.22;;;1.20;;
27213;SDS011;14723;55.814;37.460;2022-11-15T04:30:01;3.67;;;1.20;;
27213;SDS011;14723;55.814;37.460;2022-11-15T04:33:28;4.63;;;1.60;;
27213;SDS011;14723;55.814;37.460;2022-11-15T04:36:52;5.43;;;1.30;;
27213;SDS011;14723;55.814;37.460;2022-11-15T04:40:28;4.65;;;1.40;;
27213;SDS011;14723;55.814;37.460;2022-11-15T04:43:52;3.75;;;1.45;;
27213;SDS011;14723;55.814;37.460;2022-11-15T04:47:16;5.45;;;1.27;;
27213;SDS011;14723;55.814;37.460;2022-11-15T04:50:43;5.88;;;1.40;;
27213;SDS011;14723;55.814;37.460;2022-11-15T04:54:07;7.60;;;1.23;;
27213;SDS011;14723;55.814;37.460;2022-11-15T04:57:31;5.10;;;1.60;;
27213;SDS011;14723;55.814;37.460;2022-11-15T05:00:54;7.43;;;1.50;;
27213;SDS011;14723;55.814;37.460;2022-11-15T05:04:19;3.13;;;1.50;;
27213;SDS011;14723;55.814;37.460;2022-11-15T05:07:45;4.43;;;1.40;;
27213;SDS011;14723;55.814;37.460;2022-11-15T05:11:09;5.75;;;1.30;;
27213;SDS011;14723;55.814;37.460;2022-11-15T05:14:33;2.70;;;1.45;;
27213;SDS011;14723;55.814;37.460;2022-11-15T05:17:57;8.57;;;1.58;;
27213;SDS011;14723;55.814;37.460;2022-11-15T05:21:20;6.65;;;1.67;;
27213;SDS011;14723;55.814;37.460;2022-11-15T05:24:47;4.28;;;1.50;;
27213;SDS011;14723;55.814;37.460;2022-11-15T05:28:12;5.38;;;1.38;;
27213;SDS011;14723;55.814;37.460;2022-11-15T05:31:38;7.93;;;2.20;;
27213;SDS011;14723;55.814;37.460;2022-11-15T05:35:03;9.60;;;2.13;;
27213;SDS011;14723;55.814;37.460;2022-11-15T05:38:30;5.77;;;1.80;;
27213;SDS011;14723;55.814;37.460;2022-11-15T05:41:58;11.35;;;1.90;;
27213;SDS011;14723;55.814;37.460;2022-11-15T05:45:24;5.32;;;1.60;;
27213;SDS011;14723;55.814;37.460;2022-11-15T05:48:48;13.32;;;2.45;;
27213;SDS011;14723;55.814;37.460;2022-11-15T05:52:14;9.35;;;1.80;;
27213;SDS011;14723;55.814;37.460;2022-11-15T05:55:39;3.47;;;1.27;;
27213;SDS011;14723;55.814;37.460;2022-11-15T05:59:06;13.32;;;2.40;;
27213;SDS011;14723;55.814;37.460;2022-11-15T06:02:30;8.23;;;1.90;;
27213;SDS011;14723;55.814;37.460;2022-11-15T06:05:55;7.53;;;1.67;;
27213;SDS011;14723;55.814;37.460;2022-11-15T06:09:19;4.93;;;1.50;;
27213;SDS011;14723;55.814;37.460;2022-11-15T06:12:43;6.20;;;1.90;;
27213;SDS011;14723;55.814;37.460;2022-11-15T06:16:09;4.10;;;1.48;;
27213;SDS011;14723;55.814;37.460;2022-11-15T06:19:33;6.47;;;1.30;;
27213;SDS011;14723;55.814;37.460;2022-11-15T06:22:57;7.68;;;3.50;;
27213;SDS011;14723;55.814;37.460;2022-11-15T06:26:22;8.60;;;2.88;;
27213;SDS011;14723;55.814;37.460;2022-11-15T06:29:45;6.40;;;1.75;;
27213;SDS011;14723;55.814;37.460;2022-11-15T06:33:12;4.75;;;1.45;;
27213;SDS011;14723;55.814;37.460;2022-11-15T06:36:36;5.35;;;1.45;;
27213;SDS011;14723;55.814;37.460;2022-11-15T06:40:00;5.00;;;1.52;;
27213;SDS011;14723;55.814;37.460;2022-11-15T06:43:24;7.68;;;1.88;;
27213;SDS011;14723;55.814;37.460;2022-11-15T06:46:48;7.47;;;2.70;;
27213;SDS011;14723;55.814;37.460;2022-11-15T06:50:14;13.27;;;1.85;;
27213;SDS011;14723;55.814;37.460;2022-11-15T06:53:37;4.97;;;1.70;;
27213;SDS011;14723;55.814;37.460;2022-11-15T06:57:03;4.53;;;1.50;;
27213;SDS011;14723;55.814;37.460;2022-11-15T07:00:27;7.05;;;1.75;;
27213;SDS011;14723;55.814;37.460;2022-11-15T07:03:51;3.33;;;1.20;;
27213;SDS011;14723;55.814;37.460;2022-11-15T07:07:17;5.53;;;1.30;;
27213;SDS011;14723;55.814;37.460;2022-11-15T07:10:41;5.35;;;1.50;;
27213;SDS011;14723;55.814;37.460;2022-11-15T07:14:05;4.25;;;1.25;;
27213;SDS011;14723;55.814;37.460;2022-11-15T07:17:29;2.30;;;1.00;;
27213;SDS011;14723;55.814;37.460;2022-11-15T07:20:52;7.93;;;1.52;;
27213;SDS011;14723;55.814;37.460;2022-11-15T07:24:19;2.97;;;1.33;;
27213;SDS011;14723;55.814;37.460;2022-11-15T07:27:42;7.28;;;1.73;;
27213;SDS011;14723;55.814;37.460;2022-11-15T07:31:07;8.02;;;1.65;;
27213;SDS011;14723;55.814;37.460;2022-11-15T07:34:31;3.60;;;1.77;;
27213;SDS011;14723;55.814;37.460;2022-11-15T07:37:55;10.35;;;1.65;;
27213;SDS011;14723;55.814;37.460;2022-11-15T07:41:22;7.47;;;1.73;;
27213;SDS011;14723;55.814;37.460;2022-11-15T07:44:46;5.47;;;2.00;;
27213;SDS011;14723;55.814;37.460;2022-11-15T07:48:09;5.50;;;2.97;;
27213;SDS011;14723;55.814;37.460;2022-11-15T07:51:33;4.97;;;1.58;;
27213;SDS011;14723;55.814;37.460;2022-11-15T07:54:56;5.43;;;1.80;;
27213;SDS011;14723;55.814;37.460;2022-11-15T07:58:23;7.57;;;1.50;;
27213;SDS011;14723;55.814;37.460;2022-11-15T08:01:46;7.35;;;1.80;;
27213;SDS011;14723;55.814;37.460;2022-11-15T08:05:10;7.35;;;1.80;;
27213;SDS011;14723;55.814;37.460;2022-11-15T08:08:35;3.17;;;1.20;;
27213;SDS011;14723;55.814;37.460;2022-11-15T08:11:58;6.90;;;1.65;;
27213;SDS011;14723;55.814;37.460;2022-11-15T08:15:25;4.95;;;1.52;;
27213;SDS011;14723;55.814;37.460;2022-11-15T08:18:49;5.20;;;1.70;;
27213;SDS011;14723;55.814;37.460;2022-11-15T08:22:12;4.82;;;1.80;;
27213;SDS011;14723;55.814;37.460;2022-11-15T08:25:36;10.30;;;2.22;;
27213;SDS011;14723;55.814;37.460;2022-11-15T08:29:00;3.00;;;1.55;;
27213;SDS011;14723;55.814;37.460;2022-11-15T08:32:27;6.18;;;2.20;;
27213;SDS011;14723;55.814;37.460;2022-11-15T08:35:51;5.97;;;1.83;;
27213;SDS011;14723;55.814;37.460;2022-11-15T08:39:14;6.43;;;1.88;;
27213;SDS011;14723;55.814;37.460;2022-11-15T08:42:38;6.32;;;1.80;;
27213;SDS011;14723;55.814;37.460;2022-11-15T08:46:02;8.07;;;1.48;;
27213;SDS011;14723;55.814;37.460;2022-11-15T08:49:29;4.97;;;1.83;;
27213;SDS011;14723;55.814;37.460;2022-11-15T08:52:52;5.25;;;1.52;;
27213;SDS011;14723;55.814;37.460;2022-11-15T08:56:16;3.45;;;1.77;;
27213;SDS011;14723;55.814;37.460;2022-11-15T08:59:40;5.13;;;1.50;;
27213;SDS011;14723;55.814;37.460;2022-11-15T09:03:05;5.82;;;1.73;;
27213;SDS011;14723;55.814;37.460;2022-11-15T09:06:32;8.07;;;1.90;;
27213;SDS011;14723;55.814;37.460;2022-11-15T09:10:02;6.55;;;2.95;;
27213;SDS011;14723;55.814;37.460;2022-11-15T09:13:26;12.77;;;2.33;;
27213;SDS011;14723;55.814;37.460;2022-11-15T09:16:50;6.07;;;2.38;;
27213;SDS011;14723;55.814;37.460;2022-11-15T09:20:14;5.18;;;1.95;;
27213;SDS011;14723;55.814;37.460;2022-11-15T09:23:41;6.50;;;2.05;;
27213;SDS011;14723;55.814;37.460;2022-11-15T09:27:05;7.18;;;1.95;;
27213;SDS011;14723;55.814;37.460;2022-11-15T09:30:28;3.95;;;1.90;;
27213;SDS011;14723;55.814;37.460;2022-11-15T09:33:52;8.52;;;2.17;;
27213;SDS011;14723;55.814;37.460;2022-11-15T09:37:16;6.22;;;2.30;;
27213;SDS011;14723;55.814;37.460;2022-11-15T09:40:42;6.13;;;1.88;;
27213;SDS011;14723;55.814;37.460;2022-11-15T09:44:14;12.07;;;2.35;;
27213;SDS011;14723;55.814;37.460;2022-11-15T09:47:56;6.22;;;2.58;;
27213;SDS011;14723;55.814;37.460;2022-11-15T09:51:28;7.50;;;2.28;;
27213;SDS011;14723;55.814;37.460;2022-11-15T09:54:34;7.40;;;2.10;;
27213;SDS011;14723;55.814;37.460;2022-11-15T09:58:00;6.82;;;2.50;;
27213;SDS011;14723;55.814;37.460;2022-11-15T10:01:08;12.63;;;2.40;;
27213;SDS011;14723;55.814;37.460;2022-11-15T10:04:17;8.77;;;2.60;;
27213;SDS011;14723;55.814;37.460;2022-11-15T10:07:24;13.23;;;2.92;;
27213;SDS011;14723;55.814;37.460;2022-11-15T10:10:31;9.57;;;2.60;;
27213;SDS011;14723;55.814;37.460;2022-11-15T10:13:42;11.60;;;3.80;;
27213;SDS011;14723;55.814;37.460;2022-11-15T10:20:12;9.23;;;2.92;;
27213;SDS011;14723;55.814;37.460;2022-11-15T10:23:20;9.63;;;3.00;;
27213;SDS011;14723;55.814;37.460;2022-11-15T10:26:25;19.67;;;4.35;;
27213;SDS011;14723;55.814;37.460;2022-11-15T10:29:34;12.55;;;3.10;;
27213;SDS011;14723;55.814;37.460;2022-11-15T10:32:39;10.32;;;3.25;;
27213;SDS011;14723;55.814;37.460;2022-11-15T10:35:46;8.00;;;2.67;;
27213;SDS011;14723;55.814;37.460;2022-11-15T10:38:55;8.25;;;2.63;;
27213;SDS011;14723;55.814;37.460;2022-11-15T10:42:14;12.88;;;3.17;;
27213;SDS011;14723;55.814;37.460;2022-11-15T10:45:25;11.80;;;2.92;;
27213;SDS011;14723;55.814;37.460;2022-11-15T10:48:31;7.80;;;2.97;;
27213;SDS011;14723;55.814;37.460;2022-11-15T10:51:39;15.65;;;3.78;;
27213;SDS011;14723;55.814;37.460;2022-11-15T10:54:46;8.10;;;2.50;;
27213;SDS011;14723;55.814;37.460;2022-11-15T10:57:53;8.55;;;2.80;;
27213;SDS011;14723;55.814;37.460;2022-11-15T11:01:10;10.77;;;3.10;;
27213;SDS011;14723;55.814;37.460;2022-11-15T11:04:16;7.70;;;3.08;;
27213;SDS011;14723;55.814;37.460;2022-11-15T11:07:22;17.60;;;3.25;;
27213;SDS011;14723;55.814;37.460;2022-11-15T11:10:28;13.43;;;2.72;;
27213;SDS011;14723;55.814;37.460;2022-11-15T11:13:54;11.02;;;2.53;;
27213;SDS011;14723;55.814;37.460;2022-11-15T11:17:05;13.30;;;2.75;;
27213;SDS011;14723;55.814;37.460;2022-11-15T11:20:17;11.43;;;2.90;;
27213;SDS011;14723;55.814;37.460;2022-11-15T11:23:31;6.93;;;2.20;;
27213;SDS011;14723;55.814;37.460;2022-11-15T11:26:42;11.35;;;3.22;;
27213;SDS011;14723;55.814;37.460;2022-11-15T11:29:51;7.22;;;2.83;;
27213;SDS011;14723;55.814;37.460;2022-11-15T11:33:05;13.35;;;3.55;;
27213;SDS011;14723;55.814;37.460;2022-11-15T11:36:16;9.32;;;2.92;;
27213;SDS011;14723;55.814;37.460;2022-11-15T11:39:24;6.75;;;2.80;;
27213;SDS011;14723;55.814;37.460;2022-11-15T11:42:34;8.52;;;2.40;;
27213;SDS011;14723;55.814;37.460;2022-11-15T11:49:15;14.23;;;3.00;;
27213;SDS011;14723;55.814;37.460;2022-11-15T11:52:22;14.20;;;4.60;;
27213;SDS011;14723;55.814;37.460;2022-11-15T11:55:31;14.95;;;5.90;;
27213;SDS011;14723;55.814;37.460;2022-11-15T11:58:38;7.47;;;2.97;;
27213;SDS011;14723;55.814;37.460;2022-11-15T12:01:45;11.55;;;3.15;;
27213;SDS011;14723;55.814;37.460;2022-11-15T12:04:54;12.35;;;3.00;;
27213;SDS011;14723;55.814;37.460;2022-11-15T12:08:06;10.93;;;3.30;;
27213;SDS011;14723;55.814;37.460;2022-11-15T12:11:15;9.15;;;2.70;;
27213;SDS011;14723;55.814;37.460;2022-11-15T12:14:29;20.50;;;3.50;;
27213;SDS011;14723;55.814;37.460;2022-11-15T12:17:35;17.35;;;3.50;;
27213;SDS011;14723;55.814;37.460;2022-11-15T12:20:51;8.73;;;3.45;;
27213;SDS011;14723;55.814;37.460;2022-11-15T12:23:58;14.38;;;3.20;;
27213;SDS011;14723;55.814;37.460;2022-11-15T12:27:06;9.27;;;3.17;;
27213;SDS011;14723;55.814;37.460;2022-11-15T12:30:15;9.13;;;3.78;;
27213;SDS011;14723;55.814;37.460;2022-11-15T12:33:29;10.50;;;3.97;;
27213;SDS011;14723;55.814;37.460;2022-11-15T12:36:38;14.27;;;3.30;;
27213;SDS011;14723;55.814;37.460;2022-11-15T12:49:54;11.45;;;3.33;;
27213;SDS011;14723;55.814;37.460;2022-11-15T12:56:32;12.90;;;3.17;;
27213;SDS011;14723;55.814;37.460;2022-11-15T12:59:50;14.43;;;3.92;;
27213;SDS011;14723;55.814;37.460;2022-11-15T13:09:50;13.20;;;3.25;;
27213;SDS011;14723;55.814;37.460;2022-11-15T13:13:00;10.52;;;3.42;;
27213;SDS011;14723;55.814;37.460;2022-11-15T13:16:05;10.95;;;3.70;;
27213;SDS011;14723;55.814;37.460;2022-11-15T13:19:11;9.57;;;3.50;;
27213;SDS011;14723;55.814;37.460;2022-11-15T13:22:17;7.68;;;2.80;;
27213;SDS011;14723;55.814;37.460;2022-11-15T13:25:46;8.47;;;3.00;;
27213;SDS011;14723;55.814;37.460;2022-11-15T13:28:56;14.30;;;3.80;;
27213;SDS011;14723;55.814;37.460;2022-11-15T13:32:02;12.35;;;3.58;;
27213;SDS011;14723;55.814;37.460;2022-11-15T13:35:08;12.20;;;4.35;;
27213;SDS011;14723;55.814;37.460;2022-11-15T13:38:17;7.50;;;3.05;;
27213;SDS011;14723;55.814;37.460;2022-11-15T13:41:23;7.90;;;3.08;;
27213;SDS011;14723;55.814;37.460;2022-11-15T13:44:32;12.80;;;3.92;;
27213;SDS011;14723;55.814;37.460;2022-11-15T13:50:43;10.98;;;3.58;;
27213;SDS011;14723;55.814;37.460;2022-11-15T13:53:48;10.98;;;3.47;;
27213;SDS011;14723;55.814;37.460;2022-11-15T13:56:56;10.88;;;4.38;;
27213;SDS011;14723;55.814;37.460;2022-11-15T14:00:06;11.68;;;3.33;;
27213;SDS011;14723;55.814;37.460;2022-11-15T14:03:16;7.90;;;3.47;;
27213;SDS011;14723;55.814;37.460;2022-11-15T14:06:23;9.30;;;3.80;;
27213;SDS011;14723;55.814;37.460;2022-11-15T14:09:30;10.40;;;4.03;;
27213;SDS011;14723;55.814;37.460;2022-11-15T14:12:36;10.10;;;4.05;;
27213;SDS011;14723;55.814;37.460;2022-11-15T14:15:45;13.52;;;4.05;;
27213;SDS011;14723;55.814;37.460;2022-11-15T14:18:51;16.25;;;4.65;;
27213;SDS011;14723;55.814;37.460;2022-11-15T14:22:10;12.15;;;3.53;;
27213;SDS011;14723;55.814;37.460;2022-11-15T14:25:16;13.20;;;5.20;;
27213;SDS011;14723;55.814;37.460;2022-11-15T14:28:31;11.23;;;3.67;;
27213;SDS011;14723;55.814;37.460;2022-11-15T14:31:42;12.70;;;3.45;;
27213;SDS011;14723;55.814;37.460;2022-11-15T14:37:53;9.13;;;2.88;;
27213;SDS011;14723;55.814;37.460;2022-11-15T14:40:58;12.65;;;3.50;;
27213;SDS011;14723;55.814;37.460;2022-11-15T14:44:04;6.35;;;2.90;;
27213;SDS011;14723;55.814;37.460;2022-11-15T14:47:13;10.13;;;3.75;;
27213;SDS011;14723;55.814;37.460;2022-11-15T14:50:19;13.27;;;4.57;;
27213;SDS011;14723;55.814;37.460;2022-11-15T14:53:24;9.63;;;3.60;;
27213;SDS011;14723;55.814;37.460;2022-11-15T14:56:29;6.93;;;3.75;;
27213;SDS011;14723;55.814;37.460;2022-11-15T14:59:35;10.80;;;3.97;;
27213;SDS011;14723;55.814;37.460;2022-11-15T15:02:43;9.98;;;4.30;;
27213;SDS011;14723;55.814;37.460;2022-11-15T15:05:49;13.48;;;4.50;;
27213;SDS011;14723;55.814;37.460;2022-11-15T15:08:54;11.50;;;5.78;;
27213;SDS011;14723;55.814;37.460;2022-11-15T15:11:59;11.68;;;4.40;;
27213;SDS011;14723;55.814;37.460;2022-11-15T15:15:11;12.53;;;5.07;;
27213;SDS011;14723;55.814;37.460;2022-11-15T15:18:19;12.23;;;4.53;;
27213;SDS011;14723;55.814;37.460;2022-11-15T15:21:26;9.30;;;4.35;;
27213;SDS011;14723;55.814;37.460;2022-11-15T15:24:38;13.20;;;4.65;;
27213;SDS011;14723;55.814;37.460;2022-11-15T15:27:43;6.57;;;3.17;;
27213;SDS011;14723;55.814;37.460;2022-11-15T15:30:49;9.02;;;3.05;;
27213;SDS011;14723;55.814;37.460;2022-11-15T15:33:57;12.90;;;3.58;;
27213;SDS011;14723;55.814;37.460;2022-11-15T15:37:11;10.50;;;3.83;;
27213;SDS011;14723;55.814;37.460;2022-11-15T15:40:25;9.57;;;3.60;;
27213;SDS011;14723;55.814;37.460;2022-11-15T15:43:30;11.90;;;4.55;;
27213;SDS011;14723;55.814;37.460;2022-11-15T15:46:36;8.45;;;4.07;;
27213;SDS011;14723;55.814;37.460;2022-11-15T15:49:44;11.15;;;4.75;;
27213;SDS011;14723;55.814;37.460;2022-11-15T15:52:49;15.27;;;5.55;;
27213;SDS011;14723;55.814;37.460;2022-11-15T15:55:54;12.82;;;5.10;;
27213;SDS011;14723;55.814;37.460;2022-11-15T15:58:59;18.90;;;7.82;;
27213;SDS011;14723;55.814;37.460;2022-11-15T16:02:05;15.23;;;6.63;;
27213;SDS011;14723;55.814;37.460;2022-11-15T16:05:13;14.10;;;6.68;;
27213;SDS011;14723;55.814;37.460;2022-11-15T16:08:20;16.73;;;7.68;;
27213;SDS011;14723;55.814;37.460;2022-11-15T16:11:26;14.45;;;6.07;;
27213;SDS011;14723;55.814;37.460;2022-11-15T16:14:31;14.65;;;5.80;;
27213;SDS011;14723;55.814;37.460;2022-11-15T16:17:37;13.93;;;6.03;;
27213;SDS011;14723;55.814;37.460;2022-11-15T16:20:47;14.20;;;6.45;;
27213;SDS011;14723;55.814;37.460;2022-11-15T16:23:58;13.20;;;5.38;;
27213;SDS011;14723;55.814;37.460;2022-11-15T16:27:04;10.00;;;4.97;;
27213;SDS011;14723;55.814;37.460;2022-11-15T16:30:10;12.73;;;5.13;;
27213;SDS011;14723;55.814;37.460;2022-11-15T16:33:16;11.88;;;5.07;;
27213;SDS011;14723;55.814;37.460;2022-11-15T16:36:25;17.88;;;6.25;;
27213;SDS011;14723;55.814;37.460;2022-11-15T16:39:32;11.00;;;5.32;;
27213;SDS011;14723;55.814;37.460;2022-11-15T16:42:37;12.60;;;5.25;;
27213;SDS011;14723;55.814;37.460;2022-11-15T16:45:42;8.85;;;4.40;;
27213;SDS011;14723;55.814;37.460;2022-11-15T16:48:48;8.25;;;4.03;;
27213;SDS011;14723;55.814;37.460;2022-11-15T16:51:55;13.20;;;4.47;;
27213;SDS011;14723;55.814;37.460;2022-11-15T16:55:01;11.55;;;4.93;;
27213;SDS011;14723;55.814;37.460;2022-11-15T16:58:07;9.90;;;4.03;;
27213;SDS011;14723;55.814;37.460;2022-11-15T17:01:16;12.73;;;4.60;;
27213;SDS011;14723;55.814;37.460;2022-11-15T17:07:31;7.57;;;4.45;;
27213;SDS011;14723;55.814;37.460;2022-11-15T17:10:37;17.67;;;5.03;;
27213;SDS011;14723;55.814;37.460;2022-11-15T17:13:44;12.80;;;5.77;;
27213;SDS011;14723;55.814;37.460;2022-11-15T17:16:49;14.25;;;5.88;;
27213;SDS011;14723;55.814;37.460;2022-11-15T17:19:56;15.80;;;5.75;;
27213;SDS011;14723;55.814;37.460;2022-11-15T17:23:07;11.65;;;5.90;;
27213;SDS011;14723;55.814;37.460;2022-11-15T17:26:15;12.50;;;5.90;;
27213;SDS011;14723;55.814;37.460;2022-11-15T17:29:41;11.43;;;5.85;;
27213;SDS011;14723;55.814;37.460;2022-11-15T17:32:46;14.32;;;6.38;;
27213;SDS011;14723;55.814;37.460;2022-11-15T17:35:55;12.68;;;6.50;;
27213;SDS011;14723;55.814;37.460;2022-11-15T17:39:03;12.35;;;6.78;;
27213;SDS011;14723;55.814;37.460;2022-11-15T17:42:08;15.45;;;6.85;;
27213;SDS011;14723;55.814;37.460;2022-11-15T17:45:13;13.65;;;5.95;;
27213;SDS011;14723;55.814;37.460;2022-11-15T17:48:19;16.45;;;6.15;;
27213;SDS011;14723;55.814;37.460;2022-11-15T17:51:24;11.95;;;6.03;;
27213;SDS011;14723;55.814;37.460;2022-11-15T17:54:32;12.32;;;6.85;;
27213;SDS011;14723;55.814;37.460;2022-11-15T17:57:37;19.27;;;7.95;;
27213;SDS011;14723;55.814;37.460;2022-11-15T18:00:43;16.60;;;7.32;;
27213;SDS011;14723;55.814;37.460;2022-11-15T18:03:48;16.00;;;7.57;;
27213;SDS011;14723;55.814;37.460;2022-11-15T18:06:54;11.77;;;6.55;;
27213;SDS011;14723;55.814;37.460;2022-11-15T18:10:02;19.77;;;8.98;;
27213;SDS011;14723;55.814;37.460;2022-11-15T18:13:07;17.20;;;7.15;;
27213;SDS011;14723;55.814;37.460;2022-11-15T18:16:14;16.48;;;6.47;;
27213;SDS011;14723;55.814;37.460;2022-11-15T18:19:19;12.65;;;6.40;;
27213;SDS011;14723;55.814;37.460;2022-11-15T18:22:24;12.10;;;6.38;;
27213;SDS011;14723;55.814;37.460;2022-11-15T18:25:32;11.88;;;6.30;;
27213;SDS011;14723;55.814;37.460;2022-11-15T18:28:38;10.38;;;6.28;;
27213;SDS011;14723;55.814;37.460;2022-11-15T18:31:44;16.27;;;8.68;;
27213;SDS011;14723;55.814;37.460;2022-11-15T18:34:51;14.68;;;7.43;;
27213;SDS011;14723;55.814;37.460;2022-11-15T18:37:56;12.50;;;7.05;;
27213;SDS011;14723;55.814;37.460;2022-11-15T18:41:07;12.48;;;6.80;;
27213;SDS011;14723;55.814;37.460;2022-11-15T18:44:13;13.35;;;6.60;;
27213;SDS011;14723;55.814;37.460;2022-11-15T18:47:18;15.88;;;7.38;;
27213;SDS011;14723;55.814;37.460;2022-11-15T18:50:23;15.95;;;6.65;;
27213;SDS011;14723;55.814;37.460;2022-11-15T18:53:29;12.80;;;6.88;;
27213;SDS011;14723;55.814;37.460;2022-11-15T18:56:37;12.73;;;6.38;;
27213;SDS011;14723;55.814;37.460;2022-11-15T18:59:42;17.30;;;6.85;;
27213;SDS011;14723;55.814;37.460;2022-11-15T19:02:48;13.30;;;6.78;;
27213;SDS011;14723;55.814;37.460;2022-11-15T19:05:59;11.65;;;6.10;;
27213;SDS011;14723;55.814;37.460;2022-11-15T19:09:04;12.70;;;6.13;;
27213;SDS011;14723;55.814;37.460;2022-11-15T19:12:12;9.20;;;5.78;;
27213;SDS011;14723;55.814;37.460;2022-11-15T19:15:17;12.95;;;6.47;;
27213;SDS011;14723;55.814;37.460;2022-11-15T19:18:23;15.00;;;6.43;;
27213;SDS011;14723;55.814;37.460;2022-11-15T19:21:28;15.00;;;6.55;;
27213;SDS011;14723;55.814;37.460;2022-11-15T19:24:33;11.75;;;5.57;;
27213;SDS011;14723;55.814;37.460;2022-11-15T19:27:41;13.15;;;5.30;;
27213;SDS011;14723;55.814;37.460;2022-11-15T19:30:47;14.98;;;6.85;;
27213;SDS011;14723;55.814;37.460;2022-11-15T19:33:53;14.98;;;6.57;;
27213;SDS011;14723;55.814;37.460;2022-11-15T19:36:58;11.32;;;6.25;;
27213;SDS011;14723;55.814;37.460;2022-11-15T19:40:04;11.98;;;5.75;;
27213;SDS011;14723;55.814;37.460;2022-11-15T19:43:12;14.38;;;6.00;;
27213;SDS011;14723;55.814;37.460;2022-11-15T19:46:18;11.48;;;5.90;;
27213;SDS011;14723;55.814;37.460;2022-11-15T19:49:24;10.75;;;6.03;;
27213;SDS011;14723;55.814;37.460;2022-11-15T19:52:29;10.82;;;6.18;;
27213;SDS011;14723;55.814;37.460;2022-11-15T19:55:35;11.90;;;6.22;;